createdAt,value
2023-02-15T00:01:43.257Z,47.53
2023-02-15T00:04:10.988Z,44.47
2023-02-15T00:06:37.934Z,52.00
2023-02-15T00:09:05.339Z,53.15
2023-02-15T00:11:41.171Z,50.45
2023-02-15T00:14:12.933Z,53.67
2023-02-15T00:16:42.106Z,48.58
2023-02-15T00:19:10.590Z,55.15
2023-02-15T00:21:38.767Z,49.90
2023-02-15T00:24:08.341Z,51.35
2023-02-15T00:26:35.410Z,49.42
2023-02-15T00:29:02.543Z,48.83
2023-02-15T00:31:34.249Z,46.17
2023-02-15T00:34:08.674Z,47.85
2023-02-15T00:36:36.098Z,48.88
2023-02-15T00:39:03.979Z,48.15
2023-02-15T00:41:31.134Z,45.22
2023-02-15T00:43:58.354Z,42.58
2023-02-15T00:46:25.360Z,50.75
2023-02-15T00:48:52.202Z,45.35
2023-02-15T00:51:19.175Z,46.20
2023-02-15T00:53:46.088Z,45.33
2023-02-15T00:56:14.195Z,48.75
2023-02-15T00:58:41.070Z,52.22
2023-02-15T01:01:12.562Z,46.95
2023-02-15T01:03:40.583Z,45.88
2023-02-15T01:06:07.416Z,48.85
2023-02-15T01:08:34.630Z,48.85
2023-02-15T01:11:06.803Z,48.53
2023-02-15T01:13:34.178Z,45.10
2023-02-15T01:16:01.589Z,48.47
2023-02-15T01:18:28.749Z,47.28
2023-02-15T01:20:57.183Z,44.78
2023-02-15T01:23:24.254Z,48.92
2023-02-15T01:25:51.469Z,47.65
2023-02-15T01:28:18.583Z,44.97
2023-02-15T01:30:45.569Z,47.80
2023-02-15T01:33:18.712Z,46.75
2023-02-15T01:35:47.185Z,47.28
2023-02-15T01:38:15.153Z,46.97
2023-02-15T01:40:42.616Z,51.67
2023-02-15T01:43:13.366Z,46.97
2023-02-15T01:45:40.824Z,46.17
2023-02-15T01:48:26.374Z,48.42
2023-02-15T01:50:57.598Z,47.95
2023-02-15T01:53:40.403Z,49.03
2023-02-15T01:56:18.300Z,46.00
2023-02-15T01:58:51.935Z,44.85
2023-02-15T02:04:05.146Z,51.15
2023-02-15T02:06:34.529Z,45.05
2023-02-15T02:09:02.186Z,45.80
2023-02-15T02:11:29.306Z,49.65
2023-02-15T02:13:57.089Z,44.15
2023-02-15T03:02:35.176Z,49.28
2023-02-15T03:05:09.903Z,50.33
2023-02-15T03:07:37.938Z,51.20
2023-02-15T03:10:08.357Z,61.33
2023-02-15T03:12:41.558Z,60.35
2023-02-15T03:15:17.242Z,57.42
2023-02-15T03:17:48.539Z,47.30
2023-02-15T03:20:31.808Z,51.50
2023-02-15T03:23:27.346Z,43.17
2023-02-15T03:25:59.595Z,50.55
2023-02-15T03:28:37.710Z,46.38
2023-02-15T03:31:07.485Z,44.00
2023-02-15T03:33:40.950Z,48.95
2023-02-15T03:36:19.995Z,45.33
2023-02-15T03:39:00.852Z,44.13
2023-02-15T03:41:38.131Z,54.72
2023-02-15T03:44:15.161Z,51.65
2023-02-15T03:46:51.741Z,50.00
2023-02-15T03:49:25.934Z,44.08
2023-02-15T03:51:56.467Z,44.92
2023-02-15T03:54:46.979Z,45.17
2023-02-15T03:57:50.761Z,49.35
2023-02-15T04:00:38.237Z,50.45
2023-02-15T04:03:28.289Z,47.30
2023-02-15T04:05:55.347Z,49.78
2023-02-15T04:08:42.172Z,48.38
2023-02-15T04:11:09.303Z,42.63
2023-02-15T04:13:36.625Z,45.60
2023-02-15T04:16:07.676Z,41.17
2023-02-15T04:19:01.564Z,44.63
2023-02-15T04:21:49.378Z,45.13
2023-02-15T04:24:35.472Z,40.97
2023-02-15T04:27:03.390Z,45.85
2023-02-15T04:29:31.092Z,45.83
2023-02-15T04:32:00.070Z,48.10
2023-02-15T04:34:27.590Z,46.50
2023-02-15T04:36:54.652Z,44.50
2023-02-15T04:39:21.602Z,41.97
2023-02-15T04:41:49.016Z,39.28
2023-02-15T04:44:16.405Z,42.85
2023-02-15T04:46:43.523Z,42.00
2023-02-15T04:49:11.533Z,44.47
2023-02-15T04:51:39.037Z,44.33
2023-02-15T04:54:06.221Z,46.50
2023-02-15T04:56:34.965Z,45.28
2023-02-15T04:59:02.300Z,44.38
2023-02-15T05:01:29.440Z,50.35
2023-02-15T05:03:56.577Z,45.63
2023-02-15T05:06:24.191Z,43.38
2023-02-15T05:08:51.663Z,46.85
2023-02-15T05:11:19.014Z,43.22
2023-02-15T05:13:46.190Z,41.65
2023-02-15T05:16:14.277Z,42.72
2023-02-15T05:18:42.510Z,44.08
2023-02-15T05:21:10.220Z,40.58
2023-02-15T05:23:37.502Z,41.67
2023-02-15T05:26:23.267Z,46.83
2023-02-15T05:28:50.818Z,50.58
2023-02-15T05:31:19.921Z,50.22
2023-02-15T05:33:50.680Z,40.15
2023-02-15T05:36:25.255Z,49.60
2023-02-15T05:38:55.767Z,45.28
2023-02-15T05:41:23.083Z,47.67
2023-02-15T05:43:50.169Z,49.78
2023-02-15T05:46:17.154Z,53.42
2023-02-15T05:48:44.343Z,54.58
2023-02-15T05:51:14.279Z,56.90
2023-02-15T05:53:41.428Z,53.65
2023-02-15T05:56:13.017Z,55.00
2023-02-15T05:58:41.860Z,59.63
2023-02-15T06:01:18.242Z,66.47
2023-02-15T06:03:46.864Z,65.82
2023-02-15T06:06:14.193Z,63.05
2023-02-15T06:08:41.592Z,67.03
2023-02-15T06:11:08.880Z,65.88
2023-02-15T06:13:38.513Z,57.85
2023-02-15T06:16:07.259Z,55.80
2023-02-15T06:18:34.497Z,50.00
2023-02-15T06:21:01.408Z,52.92
2023-02-15T06:23:29.016Z,52.08
2023-02-15T06:25:55.928Z,53.00
2023-02-15T06:28:23.145Z,49.55
2023-02-15T06:30:50.377Z,48.33
2023-02-15T06:33:17.425Z,49.60
2023-02-15T06:35:45.521Z,46.85
2023-02-15T06:38:12.545Z,48.70
2023-02-15T06:40:39.457Z,54.03
2023-02-15T06:43:06.735Z,49.90
2023-02-15T06:45:33.767Z,51.00
2023-02-15T06:48:00.755Z,54.33
2023-02-15T06:50:27.664Z,55.50
2023-02-15T06:52:59.163Z,52.50
2023-02-15T06:55:26.839Z,49.55
2023-02-15T06:57:53.976Z,52.95
2023-02-15T07:00:23.231Z,50.88
2023-02-15T07:02:58.642Z,46.50
2023-02-15T07:05:31.767Z,49.95
2023-02-15T07:08:00.109Z,47.38
2023-02-15T07:10:27.966Z,46.20
2023-02-15T07:12:55.295Z,47.83
2023-02-15T07:15:22.399Z,47.78
2023-02-15T07:17:50.320Z,46.55
2023-02-15T07:20:20.944Z,92.65
2023-02-15T07:22:49.017Z,49.55
2023-02-15T07:25:16.120Z,53.90
2023-02-15T07:27:43.316Z,55.08
2023-02-15T07:30:13.489Z,56.58
2023-02-15T07:33:01.846Z,53.20
2023-02-15T07:35:30.533Z,51.33
2023-02-15T07:37:57.510Z,55.65
2023-02-15T07:40:24.689Z,53.17
2023-02-15T07:42:55.836Z,51.33
2023-02-15T07:45:23.249Z,56.42
2023-02-15T07:47:50.276Z,55.33
2023-02-15T07:50:17.435Z,54.85
2023-02-15T07:52:44.424Z,56.45
2023-02-15T07:55:13.784Z,58.47
2023-02-15T07:57:45.786Z,56.58
2023-02-15T08:00:14.644Z,60.08
2023-02-15T08:02:42.689Z,55.60
2023-02-15T08:05:09.686Z,59.45
2023-02-15T08:07:36.580Z,53.40
2023-02-15T08:10:03.659Z,58.42
2023-02-15T08:12:30.561Z,55.05
2023-02-15T08:14:59.901Z,56.92
2023-02-15T08:17:26.930Z,60.30
2023-02-15T08:19:53.865Z,57.67
2023-02-15T08:22:20.856Z,59.28
2023-02-15T08:24:49.200Z,57.60
2023-02-15T08:27:16.157Z,61.13
2023-02-15T08:29:43.336Z,61.03
2023-02-15T08:32:13.223Z,61.20
2023-02-15T08:34:42.841Z,58.40
2023-02-15T08:37:11.311Z,61.42
2023-02-15T08:39:38.705Z,73.75
2023-02-15T08:42:07.023Z,66.05
2023-02-15T08:44:34.225Z,65.90
2023-02-15T08:47:05.292Z,61.95
2023-02-15T08:49:33.135Z,69.75
2023-02-15T08:52:00.726Z,68.88
2023-02-15T08:54:27.806Z,65.05
2023-02-15T08:56:55.044Z,66.60
2023-02-15T08:59:23.954Z,67.38
2023-02-15T09:01:52.898Z,70.72
2023-02-15T09:04:21.551Z,74.45
2023-02-15T09:06:50.548Z,67.63
2023-02-15T09:09:21.012Z,70.55
2023-02-15T09:11:55.209Z,70.68
2023-02-15T09:14:26.013Z,69.85
2023-02-15T09:16:53.913Z,72.40
2023-02-15T09:19:22.980Z,70.68
2023-02-15T09:21:49.837Z,65.65
2023-02-15T09:24:17.829Z,68.03
2023-02-15T09:26:46.931Z,71.38
2023-02-15T09:29:14.768Z,73.03
2023-02-15T09:31:45.418Z,74.28
2023-02-15T09:34:14.210Z,72.07
2023-02-15T09:36:42.046Z,70.85
2023-02-15T09:39:18.137Z,68.45
2023-02-15T09:42:12.928Z,64.82
2023-02-15T09:44:58.551Z,68.38
2023-02-15T09:47:28.466Z,75.63
2023-02-15T09:49:55.476Z,71.03
2023-02-15T09:53:00.222Z,77.95
2023-02-15T09:56:13.320Z,75.18
2023-02-15T09:58:58.260Z,71.93
2023-02-15T10:02:01.901Z,66.07
2023-02-15T10:05:12.984Z,72.03
2023-02-15T10:08:21.542Z,71.45
2023-02-15T10:11:42.393Z,69.47
2023-02-15T10:14:38.897Z,72.38
2023-02-15T10:17:27.018Z,74.38
2023-02-15T10:20:08.953Z,67.80
2023-02-15T10:22:48.862Z,73.18
2023-02-15T10:25:34.548Z,68.47
2023-02-15T10:28:07.115Z,69.55
2023-02-15T10:30:50.125Z,74.07
2023-02-15T10:33:43.781Z,70.30
2023-02-15T10:36:28.363Z,74.40
2023-02-15T10:39:13.682Z,71.00
2023-02-15T10:42:19.027Z,70.45
2023-02-15T10:44:51.992Z,67.85
2023-02-15T10:47:28.970Z,70.18
2023-02-15T10:50:15.172Z,69.20
2023-02-15T10:53:14.969Z,67.28
2023-02-15T10:55:51.077Z,74.07
2023-02-15T10:58:41.801Z,66.05
2023-02-15T11:01:36.813Z,69.78
2023-02-15T11:04:46.514Z,67.53
2023-02-15T11:12:21.128Z,65.65
2023-02-15T11:14:59.866Z,69.72
2023-02-15T11:17:39.454Z,65.67
2023-02-15T11:20:32.113Z,59.92
2023-02-15T11:23:01.362Z,59.67
2023-02-15T11:25:33.671Z,59.47
2023-02-15T11:28:04.741Z,60.17
2023-02-15T11:30:45.398Z,61.22
2023-02-15T11:33:23.554Z,60.10
2023-02-15T11:36:27.109Z,59.15
2023-02-15T11:39:06.085Z,54.47
2023-02-15T11:41:37.336Z,51.33
2023-02-15T11:44:19.050Z,58.85
2023-02-15T11:46:45.949Z,50.80
2023-02-15T11:49:24.205Z,56.85
2023-02-15T11:51:51.932Z,56.67
2023-02-15T11:54:27.781Z,50.35
2023-02-15T11:57:00.637Z,53.22
2023-02-15T11:59:33.420Z,46.85
2023-02-15T12:02:00.222Z,46.70
2023-02-15T12:04:44.404Z,41.35
2023-02-15T12:07:32.881Z,48.85
2023-02-15T12:10:35.518Z,42.22
2023-02-15T12:13:13.553Z,54.88
2023-02-15T12:15:47.740Z,50.38
2023-02-15T12:18:38.613Z,45.97
2023-02-15T12:21:33.865Z,42.95
2023-02-15T12:24:24.063Z,40.70
2023-02-15T12:27:14.743Z,47.90
2023-02-15T12:29:45.401Z,42.88
2023-02-15T12:32:23.991Z,44.50
2023-02-15T12:34:53.629Z,43.13
2023-02-15T12:37:33.086Z,37.85
2023-02-15T12:40:02.206Z,36.80
2023-02-15T12:42:43.037Z,37.75
2023-02-15T12:45:33.770Z,38.97
2023-02-15T12:48:13.678Z,40.90
2023-02-15T12:50:41.733Z,42.58
2023-02-15T12:53:30.727Z,39.75
2023-02-15T12:56:03.763Z,44.00
2023-02-15T12:58:31.530Z,42.10
2023-02-15T13:01:10.501Z,40.92
2023-02-15T13:03:40.412Z,41.88
2023-02-15T13:06:08.971Z,37.40
2023-02-15T13:08:47.081Z,35.97
2023-02-15T13:11:26.459Z,38.65
2023-02-15T13:13:57.045Z,35.20
2023-02-15T13:16:36.416Z,35.47
2023-02-15T13:19:13.433Z,34.05
2023-02-15T13:21:44.734Z,33.38
2023-02-15T13:24:38.952Z,40.00
2023-02-15T13:27:15.414Z,39.75
2023-02-15T13:29:52.488Z,33.00
2023-02-15T13:32:37.263Z,33.72
2023-02-15T13:35:08.140Z,35.17
2023-02-15T13:37:34.937Z,35.25
2023-02-15T13:40:03.975Z,36.40
2023-02-15T13:42:40.492Z,32.05
2023-02-15T13:45:34.938Z,34.97
2023-02-15T13:48:21.325Z,32.60
2023-02-15T13:50:50.900Z,30.00
2023-02-15T13:53:36.456Z,34.50
2023-02-15T13:56:28.325Z,32.25
2023-02-15T13:59:14.560Z,31.80
2023-02-15T14:01:57.958Z,31.70
2023-02-15T14:04:43.255Z,29.83
2023-02-15T14:07:31.585Z,28.92
2023-02-15T14:10:07.742Z,31.48
2023-02-15T14:13:10.139Z,33.28
2023-02-15T14:15:43.263Z,30.50
2023-02-15T14:18:26.362Z,30.27
2023-02-15T14:21:18.038Z,32.90
2023-02-15T14:24:25.662Z,31.45
2023-02-15T14:27:01.890Z,31.08
2023-02-15T14:29:49.435Z,27.45
2023-02-15T14:32:26.383Z,27.15
2023-02-15T14:35:02.718Z,26.75
2023-02-15T14:37:44.807Z,26.15
2023-02-15T14:41:05.138Z,29.67
2023-02-15T14:43:51.176Z,26.67
2023-02-15T14:46:22.719Z,27.98
2023-02-15T14:48:52.757Z,26.48
2023-02-15T14:51:43.703Z,25.48
2023-02-15T14:54:33.739Z,24.15
2023-02-15T14:57:03.585Z,27.90
2023-02-15T15:02:09.565Z,24.90
2023-02-15T15:04:44.344Z,22.63
2023-02-15T15:07:23.260Z,22.70
2023-02-15T15:10:02.748Z,23.50
2023-02-15T15:12:36.676Z,29.20
2023-02-15T15:15:05.129Z,29.35
2023-02-15T15:17:37.513Z,25.70
2023-02-15T15:20:12.470Z,27.98
2023-02-15T15:22:40.044Z,27.08
2023-02-15T15:25:32.141Z,26.45
2023-02-15T15:27:59.107Z,24.45
2023-02-15T15:30:26.201Z,24.48
2023-02-15T15:32:56.462Z,20.98
2023-02-15T15:35:42.068Z,25.08
2023-02-15T15:38:15.141Z,22.60
2023-02-15T15:40:52.375Z,25.65
2023-02-15T15:43:49.827Z,21.05
2023-02-15T15:46:32.289Z,24.27
2023-02-15T15:49:16.440Z,21.70
2023-02-15T15:51:44.811Z,24.98
2023-02-15T15:54:20.932Z,25.25
2023-02-15T15:56:54.836Z,22.23
2023-02-15T15:59:31.289Z,25.17
2023-02-15T16:02:05.705Z,26.15
2023-02-15T16:04:34.945Z,23.17
2023-02-15T16:07:23.522Z,21.30
2023-02-15T16:10:00.849Z,21.50
2023-02-15T16:12:30.361Z,23.23
2023-02-15T16:14:57.790Z,20.85
2023-02-15T16:17:32.742Z,23.30
2023-02-15T16:20:06.880Z,24.15
2023-02-15T16:22:34.738Z,19.33
2023-02-15T16:25:43.186Z,25.80
2023-02-15T16:28:13.916Z,26.65
2023-02-15T16:30:43.068Z,24.63
2023-02-15T16:33:16.032Z,23.80
2023-02-15T16:36:04.322Z,23.83
2023-02-15T16:38:43.835Z,28.15
2023-02-15T16:41:16.603Z,23.55
2023-02-15T16:43:47.124Z,22.10
2023-02-15T16:46:24.599Z,26.83
2023-02-15T16:48:54.794Z,26.13
2023-02-15T16:51:26.069Z,24.60
2023-02-15T16:53:56.527Z,24.60
2023-02-15T16:56:31.674Z,31.02
2023-02-15T16:58:59.726Z,26.42
2023-02-15T17:01:30.839Z,26.42
2023-02-15T17:04:14.745Z,28.92
2023-02-15T17:06:42.064Z,24.58
2023-02-15T17:09:21.748Z,30.13
2023-02-15T17:14:22.019Z,38.63
2023-02-15T17:16:55.306Z,30.67
2023-02-15T17:19:34.822Z,31.08
2023-02-15T17:22:07.630Z,31.25
2023-02-15T17:24:43.356Z,32.67
2023-02-15T17:27:16.962Z,31.75
2023-02-15T17:29:59.395Z,33.00
2023-02-15T17:32:29.048Z,30.17
2023-02-15T17:35:22.633Z,32.13
2023-02-15T17:37:50.972Z,39.63
2023-02-15T17:40:20.434Z,34.58
2023-02-15T17:42:47.707Z,33.50
2023-02-15T17:45:15.578Z,31.50
2023-02-15T17:47:43.777Z,31.73
2023-02-15T17:50:24.651Z,31.20
2023-02-15T17:52:53.211Z,31.13
2023-02-15T17:55:41.241Z,32.28
2023-02-15T17:58:11.065Z,28.45
2023-02-15T18:01:01.290Z,34.63
2023-02-15T18:03:58.267Z,29.63
2023-02-15T18:06:44.358Z,30.63
2023-02-15T18:09:35.079Z,29.75
2023-02-15T18:12:02.503Z,34.58
2023-02-15T18:14:29.435Z,33.92
2023-02-15T18:16:56.548Z,39.30
2023-02-15T18:19:26.101Z,39.97
2023-02-15T18:21:55.693Z,44.47
2023-02-15T18:24:25.047Z,46.70
2023-02-15T18:26:53.796Z,56.85
2023-02-15T18:29:21.514Z,55.72
2023-02-15T18:31:53.838Z,58.10
2023-02-15T18:34:33.748Z,47.47
2023-02-15T18:37:03.045Z,43.33
2023-02-15T18:39:46.616Z,44.20
2023-02-15T18:42:31.961Z,46.42
2023-02-15T18:45:21.079Z,58.35
2023-02-15T18:47:48.988Z,59.25
2023-02-15T18:50:18.602Z,60.38
2023-02-15T18:52:47.806Z,56.35
2023-02-15T18:55:23.152Z,48.88
2023-02-15T18:57:54.498Z,45.33
2023-02-15T19:00:25.897Z,51.05
2023-02-15T19:02:54.014Z,45.45
2023-02-15T19:05:22.486Z,51.92
2023-02-15T19:07:53.437Z,55.67
2023-02-15T19:10:25.701Z,55.28
2023-02-15T19:13:04.077Z,48.88
2023-02-15T19:15:31.338Z,48.75
2023-02-15T19:18:01.692Z,53.92
2023-02-15T19:20:38.922Z,54.67
2023-02-15T19:23:19.050Z,58.92
2023-02-15T19:25:49.191Z,68.13
2023-02-15T19:28:31.251Z,63.33
2023-02-15T19:30:58.221Z,59.25
2023-02-15T19:33:25.292Z,53.67
2023-02-15T19:35:57.190Z,55.60
2023-02-15T19:38:32.224Z,54.28
2023-02-15T19:41:06.729Z,58.40
2023-02-15T19:43:34.886Z,54.45
2023-02-15T19:46:02.140Z,50.42
2023-02-15T19:48:29.809Z,51.22
2023-02-15T19:50:57.244Z,56.03
2023-02-15T19:53:28.583Z,51.45
2023-02-15T19:55:55.706Z,50.50
2023-02-15T19:58:22.794Z,61.35
2023-02-15T20:00:51.299Z,61.13
2023-02-15T20:03:18.211Z,60.80
2023-02-15T20:05:45.541Z,67.20
2023-02-15T20:08:23.171Z,63.15
2023-02-15T20:10:50.380Z,65.80
2023-02-15T20:13:19.719Z,65.05
2023-02-15T20:15:47.382Z,60.85
2023-02-15T20:18:14.548Z,64.43
2023-02-15T20:20:53.667Z,59.20
2023-02-15T20:23:33.814Z,59.47
2023-02-15T20:26:02.953Z,61.00
2023-02-15T20:28:31.866Z,60.25
2023-02-15T20:30:59.628Z,64.20
2023-02-15T20:33:26.876Z,60.80
2023-02-15T20:35:53.752Z,62.58
2023-02-15T20:38:25.412Z,63.55
2023-02-15T20:41:12.218Z,56.58
2023-02-15T20:43:40.039Z,63.88
2023-02-15T20:46:07.560Z,62.28
2023-02-15T20:48:34.834Z,63.20
2023-02-15T20:51:02.410Z,68.90
2023-02-15T20:53:29.827Z,81.53
2023-02-15T20:55:56.970Z,93.63
2023-02-15T20:58:29.803Z,87.05
2023-02-15T21:00:58.977Z,85.70
2023-02-15T21:03:31.192Z,70.35
2023-02-15T21:05:59.064Z,67.15
2023-02-15T21:08:26.624Z,58.35
2023-02-15T21:10:54.092Z,65.53
2023-02-15T21:13:32.565Z,54.63
2023-02-15T21:16:00.610Z,53.05
2023-02-15T21:18:31.167Z,52.63
2023-02-15T21:21:01.029Z,61.58
2023-02-15T21:23:38.485Z,67.60
2023-02-15T21:26:06.117Z,67.95
2023-02-15T21:28:32.931Z,59.85
2023-02-15T21:31:00.065Z,55.95
2023-02-15T21:33:27.479Z,61.33
2023-02-15T21:35:56.709Z,59.25
2023-02-15T21:38:26.177Z,57.25
2023-02-15T21:40:53.102Z,59.30
2023-02-15T21:43:43.038Z,61.47
2023-02-15T21:46:36.932Z,55.85
2023-02-15T21:49:06.916Z,75.13
2023-02-15T21:51:53.265Z,70.32
2023-02-15T21:54:21.012Z,72.82
2023-02-15T21:56:50.923Z,69.97
2023-02-15T21:59:18.769Z,65.40
2023-02-15T22:01:48.932Z,67.63
2023-02-15T22:04:25.287Z,70.43
2023-02-15T22:06:52.553Z,77.38
2023-02-15T22:09:22.640Z,69.97
2023-02-15T22:11:51.107Z,72.43
2023-02-15T22:14:38.245Z,65.10
2023-02-15T22:17:20.581Z,63.63
2023-02-15T22:19:49.423Z,60.63
2023-02-15T22:22:17.276Z,52.50
2023-02-15T22:24:45.175Z,56.10
2023-02-15T22:27:25.674Z,50.58
2023-02-15T22:29:53.463Z,53.85
2023-02-15T22:32:23.790Z,53.10
2023-02-15T22:34:51.804Z,50.33
2023-02-15T22:37:18.987Z,51.80
2023-02-15T22:39:45.911Z,55.90
2023-02-15T22:42:25.735Z,59.13
2023-02-15T22:44:54.859Z,60.58
2023-02-15T22:47:24.274Z,61.42
2023-02-15T22:49:51.427Z,58.20
2023-02-15T22:52:18.867Z,53.00
2023-02-15T22:54:46.152Z,54.70
2023-02-15T22:57:23.153Z,55.20
2023-02-15T22:59:50.089Z,54.45
2023-02-15T23:02:17.286Z,52.17
2023-02-15T23:04:45.278Z,50.10
2023-02-15T23:07:17.097Z,52.83
2023-02-15T23:09:44.793Z,55.00
2023-02-15T23:12:23.812Z,56.05
2023-02-15T23:14:51.123Z,62.17
2023-02-15T23:17:18.049Z,69.30
2023-02-15T23:19:45.087Z,64.10
2023-02-15T23:22:16.786Z,59.35
2023-02-15T23:24:49.207Z,60.40
2023-02-15T23:27:37.225Z,64.15
2023-02-15T23:30:06.228Z,58.25
2023-02-15T23:32:33.263Z,61.45
2023-02-15T23:35:00.101Z,59.33
2023-02-15T23:37:27.233Z,63.33
2023-02-15T23:40:12.632Z,65.40
2023-02-15T23:42:39.522Z,64.35
2023-02-15T23:45:23.776Z,60.42
2023-02-15T23:48:09.169Z,56.38
2023-02-15T23:50:36.057Z,53.65
2023-02-15T23:53:03.706Z,51.67
2023-02-15T23:55:39.274Z,51.40
2023-02-15T23:58:11.637Z,50.28
